createdAt,value
2018-11-03T00:02:00.176Z,8.07
2018-11-03T00:04:29.494Z,7.17
2018-11-03T00:06:58.589Z,9.23
2018-11-03T00:09:27.782Z,7.43
2018-11-03T00:11:57.081Z,7.30
2018-11-03T00:14:26.822Z,7.03
2018-11-03T00:16:56.044Z,7.70
2018-11-03T00:19:26.873Z,7.20
2018-11-03T00:21:56.457Z,6.60
2018-11-03T00:24:25.910Z,8.53
2018-11-03T00:26:57.808Z,7.53
2018-11-03T00:29:27.020Z,7.83
2018-11-03T00:31:56.225Z,8.83
2018-11-03T00:34:25.312Z,7.70
2018-11-03T00:36:54.510Z,7.50
2018-11-03T00:39:23.970Z,7.53
2018-11-03T00:41:53.077Z,7.50
2018-11-03T00:44:22.316Z,8.40
2018-11-03T00:46:51.483Z,7.80
2018-11-03T00:49:20.548Z,8.30
2018-11-03T00:51:49.549Z,8.07
2018-11-03T00:54:18.689Z,8.20
2018-11-03T00:56:47.762Z,8.70
2018-11-03T00:59:16.929Z,7.70
2018-11-03T01:01:45.975Z,8.00
2018-11-03T01:04:14.990Z,9.50
2018-11-03T01:06:44.079Z,9.30
2018-11-03T01:09:13.124Z,8.73
2018-11-03T01:11:42.237Z,10.70
2018-11-03T01:14:11.339Z,9.97
2018-11-03T01:16:40.447Z,10.10
2018-11-03T01:19:09.619Z,10.13
2018-11-03T01:21:38.729Z,9.07
2018-11-03T01:24:08.284Z,9.63
2018-11-03T01:26:37.426Z,10.43
2018-11-03T01:29:06.647Z,8.50
2018-11-03T01:31:35.659Z,9.80
2018-11-03T01:34:04.923Z,8.00
2018-11-03T01:36:33.833Z,8.37
2018-11-03T01:39:02.928Z,8.30
2018-11-03T01:41:31.893Z,9.00
2018-11-03T01:44:00.897Z,9.40
2018-11-03T01:46:29.857Z,9.77
2018-11-03T01:48:58.763Z,8.43
2018-11-03T01:51:27.737Z,7.33
2018-11-03T01:53:56.805Z,8.53
2018-11-03T01:56:25.928Z,8.90
2018-11-03T01:58:54.913Z,9.57
2018-11-03T02:01:24.101Z,9.50
2018-11-03T02:03:53.109Z,9.83
2018-11-03T02:06:22.117Z,9.70
2018-11-03T02:08:51.116Z,10.00
2018-11-03T02:11:20.003Z,8.40
2018-11-03T02:13:49.029Z,10.20
2018-11-03T02:16:18.013Z,8.90
2018-11-03T02:18:46.927Z,8.60
2018-11-03T02:21:16.016Z,8.77
2018-11-03T02:23:45.140Z,9.00
2018-11-03T02:26:14.110Z,10.67
2018-11-03T02:28:43.174Z,10.90
2018-11-03T02:31:12.137Z,12.37
2018-11-03T02:33:41.254Z,10.47
2018-11-03T02:36:10.348Z,11.10
2018-11-03T02:38:39.521Z,10.10
2018-11-03T02:41:08.498Z,11.33
2018-11-03T02:43:37.387Z,10.13
2018-11-03T02:46:06.522Z,9.13
2018-11-03T02:48:35.515Z,10.10
2018-11-03T02:51:04.571Z,8.90
2018-11-03T02:53:33.530Z,10.00
2018-11-03T02:56:02.493Z,10.03
2018-11-03T02:58:31.479Z,9.03
2018-11-03T03:01:00.384Z,9.67
2018-11-03T03:03:29.327Z,9.30
2018-11-03T03:05:58.248Z,8.60
2018-11-03T03:08:27.277Z,9.00
2018-11-03T03:10:56.617Z,10.47
2018-11-03T03:13:25.530Z,8.00
2018-11-03T03:15:55.211Z,8.93
2018-11-03T03:18:24.157Z,9.73
2018-11-03T03:20:53.172Z,11.47
2018-11-03T03:23:22.155Z,8.70
2018-11-03T03:25:51.114Z,8.47
2018-11-03T03:28:22.002Z,9.20
2018-11-03T03:30:51.022Z,10.90
2018-11-03T03:33:19.941Z,14.80
2018-11-03T03:35:48.954Z,9.57
2018-11-03T03:38:17.932Z,10.10
2018-11-03T03:40:47.300Z,9.00
2018-11-03T03:43:16.205Z,9.07
2018-11-03T03:45:45.166Z,10.40
2018-11-03T03:48:14.124Z,10.00
2018-11-03T03:50:43.151Z,9.03
2018-11-03T03:53:12.112Z,8.40
2018-11-03T03:55:41.177Z,8.73
2018-11-03T03:58:10.244Z,8.20
2018-11-03T04:00:39.300Z,8.60
2018-11-03T04:03:08.310Z,8.83
2018-11-03T04:05:37.285Z,8.80
2018-11-03T04:08:06.376Z,8.83
2018-11-03T04:10:35.499Z,9.80
2018-11-03T04:13:04.537Z,8.77
2018-11-03T04:15:33.445Z,9.33
2018-11-03T04:18:02.459Z,9.70
2018-11-03T04:20:31.392Z,9.70
2018-11-03T04:23:00.433Z,9.30
2018-11-03T04:25:29.457Z,12.80
2018-11-03T04:27:58.491Z,11.50
2018-11-03T04:30:27.445Z,12.77
2018-11-03T04:32:56.458Z,12.03
2018-11-03T04:35:25.398Z,12.37
2018-11-03T04:37:54.410Z,12.33
2018-11-03T04:40:23.323Z,14.97
2018-11-03T04:42:52.519Z,15.13
2018-11-03T04:45:21.596Z,14.67
2018-11-03T04:47:50.533Z,15.93
2018-11-03T04:50:19.643Z,15.83
2018-11-03T04:52:48.538Z,15.70
2018-11-03T04:55:17.778Z,14.80
2018-11-03T04:57:46.716Z,13.73
2018-11-03T05:00:15.621Z,15.53
2018-11-03T05:02:44.715Z,14.83
2018-11-03T05:05:13.767Z,13.20
2018-11-03T05:07:42.869Z,13.00
2018-11-03T05:10:11.951Z,14.57
2018-11-03T05:12:41.023Z,15.10
2018-11-03T05:15:10.035Z,14.80
2018-11-03T05:17:39.236Z,15.97
2018-11-03T05:20:08.265Z,14.63
2018-11-03T05:22:37.240Z,15.33
2018-11-03T05:25:06.329Z,15.50
2018-11-03T05:27:35.301Z,16.10
2018-11-03T05:30:04.607Z,14.60
2018-11-03T05:32:33.789Z,15.10
2018-11-03T05:35:02.747Z,14.00
2018-11-03T05:37:31.776Z,14.17
2018-11-03T05:40:00.853Z,16.47
2018-11-03T05:42:29.918Z,16.23
2018-11-03T05:44:58.856Z,15.37
2018-11-03T05:47:27.873Z,16.37
2018-11-03T05:49:56.891Z,17.20
2018-11-03T05:52:26.083Z,17.33
2018-11-03T05:54:55.822Z,16.40
2018-11-03T05:57:25.843Z,17.87
2018-11-03T05:59:54.709Z,17.90
2018-11-03T06:02:23.677Z,15.77
2018-11-03T06:04:52.931Z,16.50
2018-11-03T06:07:21.819Z,16.40
2018-11-03T06:09:50.750Z,15.80
2018-11-03T06:12:19.766Z,15.83
2018-11-03T06:14:48.695Z,15.40
2018-11-03T06:17:17.774Z,14.47
2018-11-03T06:19:46.927Z,14.60
2018-11-03T06:22:16.028Z,15.60
2018-11-03T06:24:45.271Z,15.43
2018-11-03T06:27:14.271Z,17.53
2018-11-03T06:29:43.469Z,16.40
2018-11-03T06:32:12.565Z,15.93
2018-11-03T06:34:42.645Z,16.50
2018-11-03T06:37:12.361Z,15.53
2018-11-03T06:39:42.239Z,16.70
2018-11-03T06:42:11.685Z,15.20
2018-11-03T06:44:41.646Z,15.57
2018-11-03T06:47:10.669Z,16.47
2018-11-03T06:49:39.622Z,16.60
2018-11-03T06:52:08.699Z,17.57
2018-11-03T06:54:38.930Z,17.60
2018-11-03T06:57:14.282Z,19.77
2018-11-03T07:02:37.177Z,19.00
2018-11-03T12:03:50.542Z,8.53
2018-11-03T13:47:02.772Z,7.00
2018-11-03T13:55:41.559Z,8.23
2018-11-03T13:58:27.444Z,6.87
2018-11-03T14:10:27.647Z,6.90
2018-11-03T14:16:02.570Z,8.10
2018-11-03T14:36:51.271Z,7.90
2018-11-03T14:39:22.243Z,7.30
2018-11-03T14:41:52.470Z,7.00
2018-11-03T14:59:53.482Z,7.33
2018-11-03T15:02:28.070Z,8.10
2018-11-03T15:05:01.648Z,8.40
2018-11-03T15:07:36.866Z,8.50
2018-11-03T15:10:16.257Z,7.93
2018-11-03T15:12:58.047Z,7.50
2018-11-03T15:15:32.789Z,7.80
2018-11-03T15:18:07.730Z,8.97
2018-11-03T15:20:44.548Z,7.87
2018-11-03T15:23:19.929Z,7.90
2018-11-03T15:26:03.098Z,7.90
2018-11-03T15:28:41.769Z,8.00
2018-11-03T15:31:16.814Z,9.40
2018-11-03T15:33:52.069Z,9.93
2018-11-03T15:36:36.100Z,10.20
2018-11-03T15:39:13.377Z,9.40
2018-11-03T15:41:56.433Z,8.87
2018-11-03T15:44:33.219Z,9.07
2018-11-03T15:47:04.895Z,7.70
2018-11-03T15:49:38.198Z,9.27
2018-11-03T15:52:09.929Z,8.40
2018-11-03T15:54:41.303Z,8.17
2018-11-03T15:57:13.201Z,8.30
2018-11-03T15:59:45.866Z,8.73
2018-11-03T16:02:32.593Z,8.70
2018-11-03T16:05:02.383Z,8.03
2018-11-03T16:07:32.860Z,8.93
2018-11-03T16:10:03.823Z,9.40
2018-11-03T16:12:36.483Z,9.20
2018-11-03T16:15:07.810Z,9.47
2018-11-03T16:17:39.336Z,10.00
2018-11-03T16:20:11.624Z,9.20
2018-11-03T16:22:44.233Z,9.80
2018-11-03T16:25:16.245Z,9.77
2018-11-03T16:27:47.312Z,9.23
2018-11-03T16:30:18.341Z,10.63
2018-11-03T16:32:48.234Z,11.37
2018-11-03T16:35:17.934Z,10.70
2018-11-03T16:37:47.621Z,12.17
2018-11-03T16:40:18.050Z,12.43
2018-11-03T16:42:54.113Z,10.07
2018-11-03T16:45:24.029Z,12.80
2018-11-03T16:47:54.102Z,11.27
2018-11-03T16:50:23.832Z,9.77
2018-11-03T16:52:53.364Z,9.33
2018-11-03T16:55:23.211Z,9.60
2018-11-03T16:57:52.876Z,11.27
2018-11-03T17:00:22.482Z,9.83
2018-11-03T17:02:52.215Z,10.60
2018-11-03T17:05:22.625Z,10.40
2018-11-03T17:07:54.108Z,11.10
2018-11-03T17:10:24.505Z,11.43
2018-11-03T17:12:55.206Z,9.77
2018-11-03T17:15:26.040Z,12.10
2018-11-03T17:17:56.609Z,10.57
2018-11-03T17:20:28.176Z,10.23
2018-11-03T17:22:58.748Z,10.93
2018-11-03T17:25:29.540Z,11.20
2018-11-03T17:28:00.606Z,12.67
2018-11-03T17:30:30.876Z,13.60
2018-11-03T17:33:01.763Z,13.30
2018-11-03T17:35:32.086Z,11.80
2018-11-03T17:38:02.655Z,13.00
2018-11-03T17:40:33.064Z,12.67
2018-11-03T17:43:03.651Z,13.17
2018-11-03T17:45:34.071Z,11.90
2018-11-03T17:48:04.639Z,12.87
2018-11-03T17:50:34.809Z,13.90
2018-11-03T17:53:05.159Z,14.37
2018-11-03T17:55:35.582Z,13.20
2018-11-03T17:58:05.966Z,13.30
2018-11-03T18:00:36.218Z,13.20
2018-11-03T18:03:06.818Z,11.93
2018-11-03T18:05:37.505Z,12.17
2018-11-03T18:08:08.195Z,12.00
2018-11-03T18:10:38.902Z,14.00
2018-11-03T18:13:09.995Z,13.10
2018-11-03T18:15:40.986Z,12.80
2018-11-03T18:18:11.741Z,13.83
2018-11-03T18:20:42.276Z,11.87
2018-11-03T18:23:12.755Z,12.67
2018-11-03T18:25:42.961Z,13.70
2018-11-03T18:28:13.202Z,13.80
2018-11-03T18:30:43.345Z,13.10
2018-11-03T18:33:14.210Z,13.30
2018-11-03T18:35:44.755Z,14.43
2018-11-03T18:38:14.965Z,12.50
2018-11-03T18:40:51.511Z,16.07
2018-11-03T18:43:25.334Z,20.23
2018-11-03T18:45:56.232Z,30.60
2018-11-03T18:48:33.041Z,29.47
2018-11-03T18:51:03.242Z,52.60
2018-11-03T18:53:34.478Z,63.47
2018-11-03T18:56:05.683Z,21.20
2018-11-03T18:58:40.690Z,22.30
2018-11-03T19:01:10.964Z,18.80
2018-11-03T19:03:41.448Z,16.77
2018-11-03T19:06:20.357Z,31.73
2018-11-03T19:08:52.890Z,51.77
2018-11-03T19:11:23.517Z,32.90
2018-11-03T19:13:59.721Z,30.47
2018-11-03T19:16:30.002Z,39.00
2018-11-03T19:19:05.572Z,32.53
2018-11-03T19:21:35.757Z,25.20
2018-11-03T19:24:06.636Z,25.40
2018-11-03T19:26:40.916Z,19.80
2018-11-03T19:29:12.039Z,19.70
2018-11-03T19:31:47.859Z,19.07
2018-11-03T19:34:17.790Z,18.03
2018-11-03T19:36:47.588Z,22.50
2018-11-03T19:39:17.661Z,20.90
2018-11-03T19:41:48.600Z,20.93
2018-11-03T19:44:19.599Z,20.70
2018-11-03T19:46:52.890Z,22.50
2018-11-03T19:49:28.303Z,19.90
2018-11-03T19:51:58.552Z,20.80
2018-11-03T19:54:28.444Z,21.53
2018-11-03T19:56:59.386Z,22.40
2018-11-03T19:59:40.150Z,22.23
2018-11-03T20:02:11.819Z,21.07
2018-11-03T20:04:41.646Z,21.77
2018-11-03T20:07:12.472Z,22.60
2018-11-03T20:09:42.380Z,23.00
2018-11-03T20:12:12.432Z,21.63
2018-11-03T20:14:42.397Z,24.10
2018-11-03T20:17:12.482Z,24.00
2018-11-03T20:19:42.335Z,21.50
2018-11-03T20:22:12.161Z,23.97
2018-11-03T20:24:41.915Z,21.00
2018-11-03T20:27:11.675Z,23.23
2018-11-03T20:29:43.704Z,26.57
2018-11-03T20:32:15.667Z,19.90
2018-11-03T20:34:45.581Z,22.10
2018-11-03T20:37:15.348Z,23.00
2018-11-03T20:39:45.558Z,21.17
2018-11-03T20:42:15.319Z,20.73
2018-11-03T20:44:45.366Z,24.00
2018-11-03T20:47:15.132Z,26.20
2018-11-03T20:49:51.451Z,27.20
2018-11-03T20:52:21.390Z,32.63
2018-11-03T20:54:51.409Z,29.50
2018-11-03T20:57:21.227Z,33.80
2018-11-03T20:59:51.141Z,39.70
2018-11-03T21:02:21.146Z,29.43
2018-11-03T21:04:51.063Z,29.23
2018-11-03T21:07:21.170Z,23.70
2018-11-03T21:09:51.091Z,20.33
2018-11-03T21:12:22.495Z,22.77
2018-11-03T21:14:54.965Z,18.40
2018-11-03T21:17:30.567Z,16.80
2018-11-03T21:20:07.785Z,17.67
2018-11-03T21:22:40.215Z,21.23
2018-11-03T21:25:10.114Z,18.87
2018-11-03T21:27:41.469Z,19.50
2018-11-03T21:30:13.720Z,22.87
2018-11-03T21:32:47.128Z,21.70
2018-11-03T21:35:17.665Z,20.90
2018-11-03T21:37:48.130Z,24.10
2018-11-03T21:40:18.466Z,20.90
2018-11-03T21:42:50.373Z,19.83
2018-11-03T21:45:22.745Z,20.27
2018-11-03T21:47:54.127Z,20.67
2018-11-03T21:50:26.002Z,21.50
2018-11-03T21:52:56.308Z,23.07
2018-11-03T21:55:26.259Z,22.33
2018-11-03T21:57:56.255Z,20.27
2018-11-03T22:00:26.177Z,21.80
2018-11-03T22:02:56.223Z,20.20
2018-11-03T22:05:26.439Z,19.50
2018-11-03T22:07:56.657Z,24.47
2018-11-03T22:10:26.536Z,22.00
2018-11-03T22:12:57.072Z,21.30
2018-11-03T22:15:27.144Z,19.77
2018-11-03T22:17:57.178Z,19.07
2018-11-03T22:20:27.081Z,18.50
2018-11-03T22:22:56.924Z,21.70
2018-11-03T22:25:29.076Z,18.63
2018-11-03T22:27:59.163Z,20.03
2018-11-03T22:30:29.232Z,20.40
2018-11-03T22:32:59.408Z,25.07
2018-11-03T22:35:29.415Z,23.07
2018-11-03T22:37:59.750Z,25.10
2018-11-03T22:40:30.144Z,20.17
2018-11-03T22:43:00.584Z,22.53
2018-11-03T22:45:30.425Z,23.00
2018-11-03T22:48:00.628Z,24.20
2018-11-03T22:50:30.607Z,21.83
2018-11-03T22:53:00.746Z,20.83
2018-11-03T22:55:30.625Z,19.33
2018-11-03T22:58:00.962Z,20.07
2018-11-03T23:00:30.981Z,22.20
2018-11-03T23:03:01.026Z,22.27
2018-11-03T23:05:30.893Z,20.03
2018-11-03T23:08:01.226Z,20.23
2018-11-03T23:10:31.176Z,24.80
2018-11-03T23:13:01.510Z,21.20
2018-11-03T23:15:31.410Z,19.00
2018-11-03T23:18:01.649Z,20.80
2018-11-03T23:20:31.436Z,18.37
2018-11-03T23:23:01.581Z,18.87
2018-11-03T23:25:31.528Z,19.97
2018-11-03T23:28:01.633Z,18.93
2018-11-03T23:30:31.553Z,18.47
2018-11-03T23:33:01.969Z,18.47
2018-11-03T23:35:33.312Z,20.00
2018-11-03T23:38:03.431Z,20.07
2018-11-03T23:40:33.430Z,17.97
2018-11-03T23:43:03.315Z,18.33
2018-11-03T23:45:33.312Z,18.10
2018-11-03T23:48:03.333Z,18.60
2018-11-03T23:50:34.309Z,18.43
2018-11-03T23:53:04.355Z,20.20
2018-11-03T23:55:35.343Z,17.80
2018-11-03T23:58:05.301Z,17.80
